Time;durP1;ratioP1;P1;durP2;ratioP2;P2;SDS_P1;SDS_P2;PMS_P1;PMS_P2;Temp;Humidity;BMP_temperature;BMP_pressure;BME280_temperature;BME280_humidity;BME280_pressure;Samples;Min_cycle;Max_cycle;Signal;HPM_P1;HPM_P2
2023/11/14 00:00:04;;;;;;;14.32;9.55;;;;;;;6.89;100.00;100698.72;5049137;28;20028;-76
2023/11/14 00:02:30;;;;;;;15.05;8.90;;;;;;;6.77;100.00;100710.06;5046679;28;20044;-73
2023/11/14 00:04:56;;;;;;;12.93;7.97;;;;;;;6.44;100.00;100685.97;5048916;28;20033;-77
2023/11/14 00:07:21;;;;;;;17.05;9.60;;;;;;;6.18;100.00;100648.56;5049865;28;20084;-75
2023/11/14 00:09:47;;;;;;;17.80;10.90;;;;;;;6.40;100.00;100696.84;5048727;28;20032;-76
2023/11/14 00:12:16;;;;;;;17.02;9.60;;;;;;;6.19;100.00;100658.03;5048563;28;20407;-77
2023/11/14 00:14:45;;;;;;;18.95;10.25;;;;;;;6.32;100.00;100686.16;5049335;28;20063;-76
2023/11/14 00:17:11;;;;;;;16.02;9.32;;;;;;;6.39;100.00;100684.81;5015582;28;20052;-76
2023/11/14 00:19:38;;;;;;;15.32;9.57;;;;;;;6.19;100.00;100658.91;5047406;28;20037;-73
2023/11/14 00:22:04;;;;;;;16.73;9.02;;;;;;;5.88;100.00;100634.06;5049277;28;20061;-76
2023/11/14 00:24:29;;;;;;;15.77;8.85;;;;;;;5.93;100.00;100677.88;5048828;28;20095;-74
2023/11/14 00:26:56;;;;;;;18.95;9.77;;;;;;;5.72;100.00;100668.13;5048381;28;20029;-76
2023/11/14 00:29:22;;;;;;;19.25;10.20;;;;;;;6.04;100.00;100692.22;5047942;28;20033;-77
2023/11/14 00:31:47;;;;;;;23.13;10.73;;;;;;;5.79;100.00;100642.06;5047292;28;20048;-75
2023/11/14 00:34:14;;;;;;;18.95;10.23;;;;;;;5.91;100.00;100679.47;5048205;28;20032;-74
2023/11/14 00:36:42;;;;;;;22.90;9.85;;;;;;;6.01;100.00;100680.91;5048379;28;20399;-75
2023/11/14 00:39:09;;;;;;;22.45;10.65;;;;;;;5.38;100.00;100585.84;5050237;28;20036;-75
2023/11/14 00:41:35;;;;;;;21.85;10.18;;;;;;;5.51;100.00;100599.47;5053528;28;20029;-76
2023/11/14 00:44:41;;;;;;;21.80;10.32;;;;;;;6.03;100.00;100690.47;5050807;28;20040;-75
2023/11/14 00:47:07;;;;;;;21.80;10.57;;;;;;;6.04;100.00;100696.47;5049828;28;20033;-73
2023/11/14 00:49:32;;;;;;;20.42;9.93;;;;;;;5.88;100.00;100671.59;5047687;28;20331;-77
2023/11/14 00:51:58;;;;;;;16.98;9.85;;;;;;;5.87;100.00;100695.44;5052143;28;20067;-73
2023/11/14 00:54:24;;;;;;;22.35;10.10;;;;;;;5.84;100.00;100675.66;5052058;28;20063;-71
2023/11/14 00:56:50;;;;;;;27.13;9.80;;;;;;;5.91;100.00;100667.53;5052167;28;20033;-74
2023/11/14 00:59:16;;;;;;;26.38;11.05;;;;;;;6.15;100.00;100680.03;5052030;28;20034;-73
2023/11/14 01:01:42;;;;;;;23.13;9.82;;;;;;;6.16;100.00;100661.31;5051603;28;20088;-75
2023/11/14 01:04:10;;;;;;;21.88;9.88;;;;;;;6.01;100.00;100645.94;5051472;28;20032;-72
2023/11/14 01:06:35;;;;;;;25.63;10.70;;;;;;;6.14;100.00;100647.50;5051093;28;20779;-74
2023/11/14 01:09:01;;;;;;;18.70;9.57;;;;;;;6.35;100.00;100667.50;5051181;28;20024;-74
2023/11/14 01:11:26;;;;;;;21.58;10.10;;;;;;;6.20;100.00;100667.50;5032133;28;20021;-72
2023/11/14 01:13:52;;;;;;;14.43;9.63;;;;;;;5.91;100.00;100615.41;5048202;28;20044;-74
2023/11/14 01:16:17;;;;;;;19.17;10.00;;;;;;;6.07;100.00;100671.91;5033989;28;20033;-74
2023/11/14 01:18:43;;;;;;;17.92;10.38;;;;;;;5.59;100.00;100605.03;5037951;28;20038;-73
2023/11/14 01:21:16;;;;;;;24.15;9.13;;;;;;;5.90;100.00;100667.44;5018393;28;20037;-75
2023/11/14 01:23:42;;;;;;;14.90;9.02;;;;;;;5.80;100.00;100664.31;5033732;28;20123;-74
2023/11/14 01:26:07;;;;;;;15.95;10.32;;;;;;;5.83;100.00;100664.53;5051632;28;20115;-75
2023/11/14 01:28:33;;;;;;;19.75;9.77;;;;;;;5.67;100.00;100677.22;5051352;28;20032;-75
2023/11/14 01:30:59;;;;;;;16.60;9.25;;;;;;;5.58;100.00;100686.91;5051543;28;20056;-73
2023/11/14 01:33:24;;;;;;;19.10;9.98;;;;;;;5.14;100.00;100615.16;5051590;28;20021;-75
2023/11/14 01:35:50;;;;;;;23.00;10.07;;;;;;;5.45;100.00;100687.84;5052248;28;20036;-73
2023/11/14 01:38:15;;;;;;;30.73;9.40;;;;;;;5.26;100.00;100653.44;5050758;28;20546;-73
2023/11/14 01:40:50;;;;;;;34.78;10.38;;;;;;;5.20;100.00;100642.81;5051644;28;20036;-75
2023/11/14 01:43:16;;;;;;;41.33;10.88;;;;;;;5.00;100.00;100632.22;5051764;28;20116;-80
2023/11/14 01:45:42;;;;;;;26.77;10.70;;;;;;;5.15;100.00;100660.44;5051580;28;20044;-75
2023/11/14 01:48:07;;;;;;;39.92;11.90;;;;;;;5.21;100.00;100672.75;5052119;28;20044;-76
2023/11/14 01:50:33;;;;;;;30.83;11.85;;;;;;;5.22;100.00;100669.41;5051366;28;20479;-75
2023/11/14 01:53:00;;;;;;;35.72;11.77;;;;;;;4.73;100.00;100610.06;5051676;28;20029;-75
2023/11/14 01:55:27;;;;;;;35.53;11.77;;;;;;;5.17;100.00;100670.75;5033712;28;20025;-75
2023/11/14 01:57:54;;;;;;;27.38;10.88;;;;;;;5.01;100.00;100636.56;5051801;28;20459;-74
2023/11/14 02:00:20;;;;;;;29.23;11.05;;;;;;;4.77;100.00;100596.66;5051949;28;20028;-74
2023/11/14 02:02:46;;;;;;;25.02;9.98;;;;;;;5.24;100.00;100683.16;5051670;28;20098;-75
2023/11/14 02:05:14;;;;;;;19.73;10.15;;;;;;;4.59;100.00;100593.84;5051275;28;20086;-79
2023/11/14 02:07:42;;;;;;;24.35;10.45;;;;;;;4.61;100.00;100641.75;5051231;28;20063;-77
2023/11/14 02:13:07;;;;;;;22.48;11.35;;;;;;;4.96;100.00;100663.53;5294149;22;20083;-74
2023/11/14 02:15:33;;;;;;;17.85;10.27;;;;;;;4.61;100.00;100600.84;5051843;28;20842;-75
2023/11/14 02:17:58;;;;;;;16.70;10.05;;;;;;;5.10;100.00;100672.06;5052394;28;20036;-75
2023/11/14 02:20:24;;;;;;;18.00;10.18;;;;;;;4.79;100.00;100592.53;5040165;28;20021;-75
2023/11/14 02:22:49;;;;;;;14.75;9.55;;;;;;;5.35;100.00;100668.47;5043204;28;20033;-74
2023/11/14 02:25:15;;;;;;;15.35;9.65;;;;;;;5.05;100.00;100639.28;5041387;28;20487;-75
2023/11/14 02:31:03;;;;;;;16.10;8.93;;;;;;;5.09;100.00;100657.50;5227746;22;20060;-76
2023/11/14 02:33:28;;;;;;;16.85;9.48;;;;;;;4.85;100.00;100626.19;5034456;28;20113;-77
2023/11/14 02:35:54;;;;;;;17.42;9.43;;;;;;;4.89;100.00;100640.91;5071729;28;20501;-75
2023/11/14 02:38:19;;;;;;;17.65;10.52;;;;;;;4.91;100.00;100651.25;5071194;28;20051;-74
2023/11/14 02:40:49;;;;;;;13.27;8.95;;;;;;;4.62;100.00;100610.28;5070815;28;20039;-75
2023/11/14 02:43:14;;;;;;;13.88;8.82;;;;;;;4.73;100.00;100633.06;5071208;28;20508;-75
2023/11/14 02:45:42;;;;;;;14.80;7.30;;;;;;;4.77;100.00;100651.28;5052893;28;20040;-76
2023/11/14 02:48:08;;;;;;;10.45;7.07;;;;;;;4.56;100.00;100645.69;5070956;28;20540;-75
2023/11/14 02:53:33;;;;;;;;;;;;;;;4.63;100.00;100659.75;5094093;22;20057;-75
2023/11/14 02:55:58;;;;;;;9.45;6.70;;;;;;;4.13;100.00;100582.44;5049934;28;20363;-73
2023/11/14 02:58:24;;;;;;;9.45;6.50;;;;;;;4.40;100.00;100660.81;5050564;28;20040;-77
2023/11/14 03:00:49;;;;;;;10.65;6.90;;;;;;;4.31;100.00;100662.00;5050470;28;20047;-75
2023/11/14 03:03:16;;;;;;;10.23;6.85;;;;;;;4.32;100.00;100666.28;5048090;28;20112;-75
2023/11/14 03:05:42;;;;;;;11.32;7.57;;;;;;;4.37;100.00;100664.94;5050558;28;20466;-79
2023/11/14 03:08:07;;;;;;;15.60;8.40;;;;;;;4.38;100.00;100653.03;5050340;28;20029;-76
2023/11/14 03:10:33;;;;;;;14.65;7.28;;;;;;;3.79;100.00;100564.94;5050173;28;20041;-75
2023/11/14 03:13:00;;;;;;;10.93;7.78;;;;;;;4.34;100.00;100662.19;5051186;28;20025;-75
2023/11/14 03:15:26;;;;;;;9.77;6.97;;;;;;;4.42;100.00;100674.56;5050521;28;20064;-74
2023/11/14 03:17:58;;;;;;;9.93;7.28;;;;;;;4.18;100.00;100642.41;5050394;28;20091;-76
2023/11/14 03:20:25;;;;;;;9.93;7.13;;;;;;;4.22;100.00;100663.94;5046439;28;20041;-75
2023/11/14 03:22:51;;;;;;;10.38;7.05;;;;;;;4.29;100.00;100683.13;5049258;28;20039;-72
2023/11/14 03:25:17;;;;;;;9.63;6.97;;;;;;;4.07;100.00;100662.94;5050093;28;20029;-75
2023/11/14 03:27:42;;;;;;;11.77;7.78;;;;;;;4.20;100.00;100675.75;5050448;28;20037;-74
2023/11/14 03:30:09;;;;;;;10.52;7.40;;;;;;;3.49;100.00;100558.66;5050229;28;20044;-76
2023/11/14 03:32:35;;;;;;;13.20;9.07;;;;;;;4.11;100.00;100667.44;5050174;28;20477;-75
2023/11/14 03:35:01;;;;;;;15.25;9.93;;;;;;;4.30;100.00;100684.88;5050233;28;20029;-75
2023/11/14 03:37:26;;;;;;;14.30;9.30;;;;;;;4.34;100.00;100691.97;5046442;28;20032;-74
2023/11/14 03:39:52;;;;;;;15.90;8.75;;;;;;;4.38;100.00;100686.28;5050164;28;20037;-76
2023/11/14 03:42:18;;;;;;;14.82;9.77;;;;;;;4.30;100.00;100687.44;5049735;28;20064;-80
2023/11/14 03:44:44;;;;;;;15.82;9.38;;;;;;;4.18;100.00;100697.75;5047407;28;20507;-74
2023/11/14 03:47:09;;;;;;;15.00;9.13;;;;;;;4.09;100.00;100715.00;5049555;28;20036;-73
2023/11/14 03:49:35;;;;;;;17.30;9.57;;;;;;;4.07;100.00;100708.94;5044756;28;20057;-75
2023/11/14 03:52:00;;;;;;;20.52;10.02;;;;;;;4.09;100.00;100705.69;5050128;28;20096;-75
2023/11/14 03:54:26;;;;;;;23.92;11.02;;;;;;;3.40;100.00;100610.88;5049746;28;20039;-75
2023/11/14 03:56:51;;;;;;;26.05;13.77;;;;;;;3.90;100.00;100711.25;5049572;28;20044;-77
2023/11/14 03:59:17;;;;;;;24.15;10.95;;;;;;;4.14;100.00;100726.44;5049376;28;20037;-74
2023/11/14 04:01:42;;;;;;;22.15;11.02;;;;;;;4.25;100.00;100722.94;5049646;28;20040;-77
2023/11/14 04:04:07;;;;;;;22.08;10.70;;;;;;;3.94;100.00;100651.91;5031190;28;20120;-74
2023/11/14 04:06:33;;;;;;;26.73;11.52;;;;;;;4.34;100.00;100712.44;5049964;28;20024;-74
2023/11/14 04:08:58;;;;;;;27.23;12.20;;;;;;;3.99;100.00;100632.66;5049417;28;20495;-76
2023/11/14 04:11:24;;;;;;;29.27;12.25;;;;;;;4.24;100.00;100671.69;5049269;28;20415;-78
2023/11/14 04:13:50;;;;;;;25.90;12.70;;;;;;;4.34;100.00;100679.19;5049056;28;20063;-76
2023/11/14 04:16:15;;;;;;;31.15;12.77;;;;;;;4.63;100.00;100718.56;5049089;28;20063;-76
2023/11/14 04:18:42;;;;;;;31.55;14.13;;;;;;;4.59;100.00;100696.13;5049883;28;20058;-78
2023/11/14 04:21:13;;;;;;;27.05;15.02;;;;;;;4.70;100.00;100711.38;5049201;28;20519;-77
2023/11/14 04:23:40;;;;;;;25.58;14.95;;;;;;;4.89;100.00;100712.53;5049259;28;20068;-75
2023/11/14 04:26:06;;;;;;;26.10;14.90;;;;;;;5.07;100.00;100709.38;5049158;28;20022;-78
2023/11/14 04:28:31;;;;;;;24.95;15.55;;;;;;;5.14;100.00;100693.63;5032395;28;20055;-75
2023/11/14 04:30:57;;;;;;;27.48;16.67;;;;;;;5.06;100.00;100656.41;5049277;28;20089;-75
2023/11/14 04:33:23;;;;;;;32.75;16.40;;;;;;;5.26;100.00;100698.59;5030813;28;20033;-75
2023/11/14 04:35:49;;;;;;;42.03;19.08;;;;;;;5.14;100.00;100712.41;5050742;28;20032;-74
2023/11/14 04:38:15;;;;;;;36.00;17.65;;;;;;;5.14;100.00;100739.69;5050092;28;20032;-74
2023/11/14 04:40:41;;;;;;;46.65;18.38;;;;;;;4.83;100.00;100691.69;5050136;28;20491;-73
2023/11/14 04:43:07;;;;;;;39.17;18.17;;;;;;;5.12;100.00;100736.13;5050359;28;20063;-74
2023/11/14 04:45:32;;;;;;;50.53;19.42;;;;;;;4.95;100.00;100710.38;5049393;28;20037;-76
2023/11/14 04:47:58;;;;;;;37.78;18.70;;;;;;;5.04;100.00;100715.19;5048907;28;20392;-75
2023/11/14 04:50:23;;;;;;;41.63;19.60;;;;;;;5.23;100.00;100732.56;5049012;28;20044;-74
2023/11/14 04:52:49;;;;;;;39.97;18.95;;;;;;;5.16;100.00;100720.22;5048762;28;20053;-75
2023/11/14 04:55:14;;;;;;;39.90;20.20;;;;;;;5.21;100.00;100721.38;5049212;28;20033;-74
2023/11/14 04:57:40;;;;;;;35.03;19.08;;;;;;;5.17;100.00;100714.28;5049313;28;20045;-78
2023/11/14 05:00:08;;;;;;;41.92;18.67;;;;;;;4.65;100.00;100661.59;5004830;28;20397;-78
2023/11/14 05:02:52;;;;;;;33.53;19.63;;;;;;;4.99;100.00;100740.47;5003698;28;20108;-75
2023/11/14 05:05:18;;;;;;;54.80;21.55;;;;;;;4.89;100.00;100717.66;5006689;28;20042;-75
2023/11/14 05:07:44;;;;;;;43.15;20.00;;;;;;;4.98;100.00;100723.34;5007149;28;20679;-75
2023/11/14 05:10:10;;;;;;;38.47;17.15;;;;;;;5.00;100.00;100718.34;5006272;28;20101;-76
2023/11/14 05:12:36;;;;;;;41.03;18.67;;;;;;;4.93;100.00;100717.06;5006008;28;20057;-75
2023/11/14 05:15:02;;;;;;;36.63;17.45;;;;;;;4.20;100.00;100607.63;5006421;28;20037;-75
2023/11/14 05:17:28;;;;;;;47.15;18.50;;;;;;;4.36;100.00;100670.84;5006574;28;20542;-75
2023/11/14 05:19:55;;;;;;;49.55;19.02;;;;;;;4.53;100.00;100701.72;5006381;28;20038;-77
2023/11/14 05:22:20;;;;;;;45.70;18.35;;;;;;;4.77;100.00;100719.44;5006827;28;20034;-77
2023/11/14 05:24:46;;;;;;;45.60;17.13;;;;;;;4.92;100.00;100720.44;5005393;28;20056;-74
2023/11/14 05:27:12;;;;;;;57.72;16.25;;;;;;;4.53;100.00;100618.22;5008013;28;20040;-77
2023/11/14 05:29:37;;;;;;;35.75;16.15;;;;;;;4.48;100.00;100593.16;5009636;28;20053;-74
2023/11/14 05:32:03;;;;;;;42.53;16.80;;;;;;;5.00;100.00;100695.31;4999566;28;20506;-74
2023/11/14 05:34:29;;;;;;;42.25;17.05;;;;;;;5.14;100.00;100698.75;5041415;28;20036;-73
2023/11/14 05:36:54;;;;;;;36.53;17.90;;;;;;;5.11;100.00;100688.31;5052230;28;20487;-71
2023/11/14 05:39:20;;;;;;;32.60;15.65;;;;;;;5.34;100.00;100702.53;5052203;28;20048;-70
2023/11/14 05:41:45;;;;;;;26.95;14.95;;;;;;;5.41;100.00;100714.03;5051595;28;20033;-71
2023/11/14 05:44:11;;;;;;;30.27;14.32;;;;;;;5.45;100.00;100716.00;5048893;28;20489;-70
2023/11/14 05:46:36;;;;;;;34.17;17.30;;;;;;;5.41;100.00;100714.94;5049679;28;20108;-69
2023/11/14 05:49:02;;;;;;;27.08;15.02;;;;;;;5.28;100.00;100685.13;5048294;28;20076;-71
2023/11/14 05:51:28;;;;;;;39.22;17.25;;;;;;;5.38;100.00;100708.72;5047152;28;20126;-76
2023/11/14 05:53:53;;;;;;;48.38;19.38;;;;;;;5.40;100.00;100725.09;5050843;28;20039;-75
2023/11/14 05:56:19;;;;;;;36.67;17.20;;;;;;;4.81;100.00;100643.00;5015820;28;20036;-74
2023/11/14 05:58:45;;;;;;;53.78;34.30;;;;;;;5.27;100.00;100719.19;5007613;28;20077;-79
2023/11/14 06:01:12;;;;;;;31.85;16.88;;;;;;;5.26;100.00;100713.97;5034083;28;20033;-75
2023/11/14 06:03:37;;;;;;;25.80;10.95;;;;;;;5.29;100.00;100730.41;5048609;28;20082;-74
2023/11/14 06:06:04;;;;;;;24.33;11.95;;;;;;;4.63;100.00;100642.72;5048717;28;20037;-74
2023/11/14 06:08:30;;;;;;;47.30;11.32;;;;;;;4.68;100.00;100677.13;5050281;28;20025;-74
2023/11/14 06:10:56;;;;;;;29.20;12.80;;;;;;;4.59;100.00;100645.88;5050869;28;20487;-76
2023/11/14 06:13:22;;;;;;;22.75;11.90;;;;;;;5.18;100.00;100742.56;5050728;28;20020;-74
2023/11/14 06:15:47;;;;;;;41.85;11.88;;;;;;;5.18;100.00;100746.75;5050827;28;20029;-74
2023/11/14 06:18:13;;;;;;;33.28;12.27;;;;;;;4.67;100.00;100664.25;5033176;28;20039;-74
2023/11/14 06:20:39;;;;;;;29.80;13.68;;;;;;;5.14;100.00;100739.69;5051937;28;20471;-73
2023/11/14 06:23:05;;;;;;;43.97;12.20;;;;;;;5.10;100.00;100728.38;5015545;28;20040;-74
2023/11/14 06:25:31;;;;;;;36.83;12.27;;;;;;;5.10;100.00;100743.72;5051100;28;20036;-74
2023/11/14 06:27:57;;;;;;;26.52;8.50;;;;;;;5.09;100.00;100764.13;5032678;28;20158;-75
2023/11/14 06:30:22;;;;;;;32.00;8.60;;;;;;;5.04;100.00;100747.59;5050381;28;20040;-73
2023/11/14 06:32:49;;;;;;;23.65;8.63;;;;;;;5.04;100.00;100750.16;5050915;28;20044;-74
2023/11/14 06:35:15;;;;;;;48.50;9.57;;;;;;;4.95;100.00;100735.97;5051305;28;20033;-73
2023/11/14 06:37:42;;;;;;;25.30;10.45;;;;;;;5.21;100.00;100766.53;5050117;28;20501;-77
2023/11/14 06:40:08;;;;;;;39.53;9.23;;;;;;;5.11;100.00;100734.38;5051396;28;20024;-74
2023/11/14 06:42:34;;;;;;;42.65;8.60;;;;;;;5.29;100.00;100766.25;5051219;28;20035;-75
2023/11/14 06:44:59;;;;;;;55.35;9.38;;;;;;;5.31;100.00;100764.69;5051433;28;20033;-74
2023/11/14 06:47:25;;;;;;;34.20;9.55;;;;;;;5.06;100.00;100736.66;5051438;28;20044;-74
2023/11/14 06:49:51;;;;;;;23.08;10.13;;;;;;;5.34;100.00;100767.41;5051602;28;20043;-75
2023/11/14 06:52:37;;;;;;;21.35;9.15;;;;;;;5.06;100.00;100685.47;5009094;28;20054;-75
2023/11/14 06:55:03;;;;;;;22.50;8.48;;;;;;;5.44;100.00;100750.06;4999859;28;20109;-75
2023/11/14 06:57:28;;;;;;;33.85;10.73;;;;;;;5.52;100.00;100748.88;5000089;28;20033;-73
2023/11/14 06:59:54;;;;;;;31.63;10.07;;;;;;;5.60;100.00;100745.09;5006755;28;20037;-72
2023/11/14 07:02:21;;;;;;;40.25;11.52;;;;;;;5.52;100.00;100720.72;5003027;28;20499;-71
2023/11/14 07:04:46;;;;;;;31.20;10.43;;;;;;;5.68;100.00;100750.69;5008982;28;20109;-71
2023/11/14 07:07:12;;;;;;;40.92;11.38;;;;;;;5.63;100.00;100731.59;5001929;28;20057;-71
2023/11/14 07:09:37;;;;;;;33.92;11.68;;;;;;;5.26;100.00;100678.13;4994058;28;20038;-71
2023/11/14 07:12:03;;;;;;;28.35;11.30;;;;;;;5.75;100.00;100775.91;5000834;28;20048;-74
2023/11/14 07:14:29;;;;;;;40.85;12.43;;;;;;;5.61;100.00;100764.81;5009057;28;20108;-75
2023/11/14 07:16:56;;;;;;;59.13;10.82;;;;;;;5.46;100.00;100780.09;5004648;28;20480;-75
2023/11/14 07:19:21;;;;;;;40.83;12.07;;;;;;;5.61;100.00;100785.31;4998902;28;20118;-74
2023/11/14 07:21:47;;;;;;;50.70;12.35;;;;;;;5.35;100.00;100746.16;4997827;28;20026;-75
2023/11/14 07:24:14;;;;;;;22.42;10.45;;;;;;;5.51;100.00;100765.03;5037136;28;20115;-73
2023/11/14 07:26:40;;;;;;;30.23;11.40;;;;;;;5.74;100.00;100784.38;5050624;28;20028;-74
2023/11/14 07:29:06;;;;;;;23.23;10.68;;;;;;;5.37;100.00;100696.72;5050525;28;20075;-77
2023/11/14 07:31:32;;;;;;;53.22;15.93;;;;;;;5.67;100.00;100723.34;5050038;28;20029;-74
2023/11/14 07:33:57;;;;;;;35.05;14.05;;;;;;;5.90;100.00;100791.31;5050229;28;20025;-74
2023/11/14 07:36:24;;;;;;;58.85;14.75;;;;;;;5.83;100.00;100776.34;5050533;28;20017;-75
2023/11/14 07:38:50;;;;;;;29.38;14.80;;;;;;;5.88;100.00;100797.16;5050089;28;20406;-74
2023/11/14 07:41:15;;;;;;;32.65;14.25;;;;;;;5.67;100.00;100725.91;5050354;28;20036;-75
2023/11/14 07:43:41;;;;;;;41.95;14.02;;;;;;;6.09;100.00;100774.53;5050261;28;20017;-75
2023/11/14 07:46:08;;;;;;;27.73;13.82;;;;;;;5.62;100.00;100709.34;5050077;28;20036;-74
2023/11/14 07:48:35;;;;;;;30.27;15.07;;;;;;;5.70;100.00;100697.00;5049786;28;20028;-75
2023/11/14 07:51:00;;;;;;;32.88;15.55;;;;;;;6.14;100.00;100760.31;5049705;28;20029;-75
2023/11/14 07:53:26;;;;;;;33.25;16.95;;;;;;;6.33;100.00;100767.44;5049446;28;20056;-74
2023/11/14 07:55:52;;;;;;;26.98;15.90;;;;;;;6.32;100.00;100757.97;5050216;28;20033;-74
2023/11/14 07:58:18;;;;;;;30.48;15.32;;;;;;;5.98;100.00;100746.59;5031025;28;20054;-75
2023/11/14 08:00:43;;;;;;;25.02;15.18;;;;;;;5.52;100.00;100666.94;5049697;28;20556;-74
2023/11/14 08:03:10;;;;;;;30.38;14.50;;;;;;;5.98;100.00;100750.78;5049985;28;20029;-72
2023/11/14 08:05:40;;;;;;;28.73;14.70;;;;;;;5.87;100.00;100715.94;5049852;28;20060;-73
2023/11/14 08:08:08;;;;;;;31.48;13.57;;;;;;;6.09;100.00;100733.53;5050116;28;20064;-74
2023/11/14 08:10:34;;;;;;;25.50;14.05;;;;;;;6.19;100.00;100740.06;5050189;28;20033;-74
2023/11/14 08:13:00;;;;;;;17.27;11.13;;;;;;;6.05;100.00;100752.94;5048472;28;20058;-73
2023/11/14 08:15:26;;;;;;;18.17;10.27;;;;;;;5.58;100.00;100666.41;5048945;28;20036;-73
2023/11/14 08:17:51;;;;;;;17.52;10.30;;;;;;;6.26;100.00;100752.47;5047574;28;20060;-77
2023/11/14 08:20:17;;;;;;;25.92;10.77;;;;;;;6.42;100.00;100756.81;5034240;28;20022;-74
2023/11/14 08:22:42;;;;;;;22.83;11.55;;;;;;;6.41;100.00;100760.19;5048307;28;20462;-76
2023/11/14 08:25:08;;;;;;;16.73;10.65;;;;;;;6.15;100.00;100704.00;5049923;28;20021;-73
2023/11/14 08:27:34;;;;;;;14.10;9.50;;;;;;;6.57;100.00;100754.25;5038764;28;20030;-74
2023/11/14 08:30:00;;;;;;;15.20;9.75;;;;;;;6.52;100.00;100746.28;4994892;28;20674;-73
2023/11/14 08:32:27;;;;;;;24.10;10.05;;;;;;;6.72;100.00;100769.66;5030022;28;20037;-72
2023/11/14 08:34:52;;;;;;;12.85;8.95;;;;;;;6.83;100.00;100763.44;5029894;28;20028;-74
2023/11/14 08:37:17;;;;;;;17.17;10.52;;;;;;;6.68;100.00;100698.41;5030067;28;20030;-74
2023/11/14 08:39:43;;;;;;;15.13;9.27;;;;;;;6.85;100.00;100727.59;5030070;28;20407;-73
2023/11/14 08:42:11;;;;;;;17.60;10.70;;;;;;;6.92;100.00;100704.03;5030075;28;20403;-73
2023/11/14 08:44:40;;;;;;;13.68;7.82;;;;;;;6.88;100.00;100690.16;5038384;28;20082;-73
2023/11/14 08:47:06;;;;;;;13.40;7.90;;;;;;;6.43;100.00;100622.63;5049702;28;20502;-78
2023/11/14 08:49:31;;;;;;;19.27;8.70;;;;;;;6.82;100.00;100694.94;5031660;28;20041;-74
2023/11/14 08:51:57;;;;;;;13.98;8.70;;;;;;;6.31;100.00;100608.34;5049828;28;20053;-74
2023/11/14 08:54:23;;;;;;;20.80;10.30;;;;;;;6.41;100.00;100609.75;5049925;28;20031;-74
2023/11/14 08:56:49;;;;;;;15.95;9.88;;;;;;;6.86;100.00;100668.66;5049857;28;20086;-72
2023/11/14 08:59:15;;;;;;;17.58;12.13;;;;;;;6.49;100.00;100587.06;5049639;28;20052;-73
2023/11/14 09:01:41;;;;;;;18.67;12.25;;;;;;;7.07;100.00;100665.50;5018063;28;20037;-73
2023/11/14 09:04:10;;;;;;;16.75;11.85;;;;;;;7.26;100.00;100658.00;5046273;28;20466;-76
2023/11/14 09:06:38;;;;;;;18.63;13.20;;;;;;;7.42;100.00;100651.94;5033684;28;20037;-73
2023/11/14 09:09:04;;;;;;;18.73;12.80;;;;;;;7.58;100.00;100666.47;5033014;28;20032;-74
2023/11/14 09:11:29;;;;;;;21.25;13.95;;;;;;;7.59;100.00;100668.25;5033691;28;20017;-73
2023/11/14 09:13:57;;;;;;;22.70;13.75;;;;;;;7.24;100.00;100582.53;5033547;28;20029;-74
2023/11/14 09:16:23;;;;;;;27.58;15.27;;;;;;;7.58;100.00;100655.34;5033033;28;20074;-74
2023/11/14 09:18:48;;;;;;;23.83;15.88;;;;;;;7.53;100.00;100652.53;5033248;28;20064;-73
2023/11/14 09:21:14;;;;;;;24.08;17.30;;;;;;;7.65;100.00;100659.09;5033563;28;20108;-74
2023/11/14 09:23:39;;;;;;;25.45;17.15;;;;;;;7.15;100.00;100565.78;5046434;28;20020;-74
2023/11/14 09:26:07;;;;;;;26.02;17.73;;;;;;;7.92;100.00;100663.09;5053107;28;20029;-78
2023/11/14 09:28:34;;;;;;;21.52;14.65;;;;;;;7.94;100.00;100634.91;5052997;28;20033;-74
2023/11/14 09:31:02;;;;;;;42.88;25.80;;;;;;;7.64;100.00;100564.81;5053019;28;20489;-78
2023/11/14 09:33:27;;;;;;;20.75;12.95;;;;;;;8.44;100.00;100651.06;5052731;28;20037;-74
2023/11/14 09:35:52;;;;;;;17.27;11.88;;;;;;;8.00;100.00;100563.22;5053078;28;20033;-74
2023/11/14 09:38:18;;;;;;;16.30;10.90;;;;;;;8.43;100.00;100603.84;5053104;28;20402;-74
2023/11/14 09:40:44;;;;;;;14.75;10.82;;;;;;;8.90;100.00;100652.38;5017426;28;20418;-74
2023/11/14 09:43:09;;;;;;;16.77;11.20;;;;;;;9.03;100.00;100626.41;5052706;28;20415;-75
2023/11/14 09:45:35;;;;;;;16.48;11.07;;;;;;;9.39;100.00;100640.84;5052525;28;20107;-74
2023/11/14 09:48:08;;;;;;;15.98;11.20;;;;;;;9.30;100.00;100612.97;5052632;28;20052;-74
2023/11/14 09:50:34;;;;;;;13.60;9.82;;;;;;;9.27;100.00;100581.94;5052464;28;20056;-74
2023/11/14 09:53:04;;;;;;;13.25;10.07;;;;;;;9.64;100.00;100605.84;5053042;28;20106;-74
2023/11/14 09:55:30;;;;;;;13.50;10.00;;;;;;;9.86;100.00;100611.09;5052331;28;20541;-74
2023/11/14 09:57:56;;;;;;;14.23;9.40;;;;;;;10.01;100.00;100612.56;5052382;28;20100;-74
2023/11/14 10:00:24;;;;;;;13.10;9.98;;;;;;;10.12;100.00;100619.03;5051502;28;20040;-75
2023/11/14 10:02:51;;;;;;;12.80;9.32;;;;;;;10.36;100.00;100611.44;5051910;28;20040;-74
2023/11/14 10:05:18;;;;;;;13.57;9.38;;;;;;;10.39;100.00;100592.59;5051730;28;20029;-72
2023/11/14 10:07:45;;;;;;;14.35;9.63;;;;;;;10.28;100.00;100540.56;5048738;28;20036;-74
2023/11/14 10:10:11;;;;;;;13.85;9.38;;;;;;;10.76;100.00;100575.97;5051475;28;20104;-73
2023/11/14 10:12:37;;;;;;;13.35;9.32;;;;;;;10.73;100.00;100524.22;5051088;28;20059;-75
2023/11/14 10:15:04;;;;;;;11.80;8.45;;;;;;;10.77;100.00;100500.25;5051563;28;20060;-76
2023/11/14 10:17:46;;;;;;;11.45;8.32;;;;;;;11.25;100.00;100553.66;5051604;28;20078;-70
2023/11/14 10:20:12;;;;;;;11.95;8.32;;;;;;;11.45;100.00;100541.41;5049414;28;20029;-71
2023/11/14 10:23:03;;;;;;;12.13;9.07;;;;;;;11.51;100.00;100532.97;5052072;28;20029;-72
2023/11/14 10:25:31;;;;;;;12.10;8.07;;;;;;;11.33;100.00;100486.72;5051958;28;20032;-71
2023/11/14 10:28:04;;;;;;;13.50;7.93;;;;;;;11.59;100.00;100521.19;5051962;28;20021;-73
2023/11/14 10:30:42;;;;;;;10.50;8.13;;;;;;;11.79;100.00;100515.81;5049247;28;20056;-71
2023/11/14 10:33:11;;;;;;;10.48;7.53;;;;;;;11.92;100.00;100515.34;5051202;28;20032;-69
2023/11/14 10:35:36;;;;;;;13.43;8.13;;;;;;;12.01;100.00;100501.88;5047938;28;20086;-70
2023/11/14 10:38:16;;;;;;;13.18;8.50;;;;;;;12.16;100.00;100485.06;5051146;28;20033;-71
2023/11/14 10:40:59;;;;;;;;;;;;;;;12.38;100.00;100508.19;5051776;28;20053;-71
2023/11/14 10:43:31;;;;;;;12.20;8.23;;;;;;;12.42;100.00;100506.56;5036017;28;19916;-72
2023/11/14 10:45:59;;;;;;;16.67;10.20;;;;;;;12.47;100.00;100494.63;5016356;28;20064;-70
2023/11/14 10:48:26;;;;;;;17.20;10.52;;;;;;;12.23;100.00;100443.03;5044932;28;20519;-70
2023/11/14 10:50:52;;;;;;;15.48;9.48;;;;;;;12.64;100.00;100494.28;5033286;28;20115;-72
2023/11/14 10:53:18;;;;;;;11.32;7.57;;;;;;;12.76;100.00;100502.38;5049719;28;20049;-70
2023/11/14 10:55:46;;;;;;;11.82;7.25;;;;;;;12.92;100.00;100514.94;5046034;28;20044;-73
2023/11/14 10:58:13;;;;;;;12.50;8.13;;;;;;;12.60;100.00;100452.72;5051116;28;20021;-71
2023/11/14 11:00:39;;;;;;;12.68;8.68;;;;;;;12.72;100.00;100464.28;5050851;28;20497;-72
2023/11/14 11:03:05;;;;;;;15.95;10.50;;;;;;;13.13;100.00;100525.88;5051467;28;20086;-72
2023/11/14 11:05:32;;;;;;;11.10;8.05;;;;;;;13.36;100.00;100524.75;5051325;28;20025;-72
2023/11/14 11:07:59;;;;;;;12.52;7.47;;;;;;;13.46;100.00;100531.09;5046489;28;20384;-72
2023/11/14 11:10:32;;;;;;;12.10;8.50;;;;;;;13.60;100.00;100518.50;5049916;28;20037;-71
2023/11/14 11:13:00;;;;;;;12.98;7.80;;;;;;;13.71;100.00;100511.84;5045874;28;20029;-77
2023/11/14 11:15:27;;;;;;;13.60;8.73;;;;;;;13.72;100.00;100505.81;5043685;28;20025;-72
2023/11/14 11:18:00;;;;;;;13.07;7.72;;;;;;;13.32;100.00;100429.59;5035070;28;20041;-72